sensor_id;sensor_type;location;lat;lon;timestamp;P1;durP1;ratioP1;P2;durP2;ratioP2
26034;SDS011;13809;48.632;11.576;2023-05-10T00:00:29;3.20;;;3.00;;
26034;SDS011;13809;48.632;11.576;2023-05-10T00:05:34;2.40;;;2.30;;
26034;SDS011;13809;48.632;11.576;2023-05-10T00:10:37;3.03;;;2.47;;
26034;SDS011;13809;48.632;11.576;2023-05-10T00:15:42;1.77;;;1.67;;
26034;SDS011;13809;48.632;11.576;2023-05-10T00:20:46;1.90;;;1.80;;
26034;SDS011;13809;48.632;11.576;2023-05-10T00:25:50;1.50;;;1.40;;
26034;SDS011;13809;48.632;11.576;2023-05-10T00:30:53;3.20;;;1.87;;
26034;SDS011;13809;48.632;11.576;2023-05-10T00:35:58;1.40;;;1.30;;
26034;SDS011;13809;48.632;11.576;2023-05-10T00:41:01;1.27;;;1.20;;
26034;SDS011;13809;48.632;11.576;2023-05-10T00:46:04;1.07;;;1.07;;
26034;SDS011;13809;48.632;11.576;2023-05-10T00:51:10;1.93;;;1.37;;
26034;SDS011;13809;48.632;11.576;2023-05-10T00:56:13;1.00;;;1.00;;
26034;SDS011;13809;48.632;11.576;2023-05-10T01:01:17;1.30;;;1.20;;
26034;SDS011;13809;48.632;11.576;2023-05-10T01:06:22;1.10;;;1.10;;
26034;SDS011;13809;48.632;11.576;2023-05-10T01:11:25;1.40;;;1.27;;
26034;SDS011;13809;48.632;11.576;2023-05-10T01:16:29;1.43;;;1.20;;
26034;SDS011;13809;48.632;11.576;2023-05-10T01:21:38;1.30;;;1.20;;
26034;SDS011;13809;48.632;11.576;2023-05-10T01:32:22;1.27;;;1.17;;
26034;SDS011;13809;48.632;11.576;2023-05-10T01:37:35;1.17;;;1.17;;
26034;SDS011;13809;48.632;11.576;2023-05-10T01:42:45;1.40;;;1.30;;
26034;SDS011;13809;48.632;11.576;2023-05-10T01:47:56;1.37;;;1.30;;
26034;SDS011;13809;48.632;11.576;2023-05-10T01:53:07;1.30;;;1.30;;
26034;SDS011;13809;48.632;11.576;2023-05-10T01:58:13;1.60;;;1.50;;
26034;SDS011;13809;48.632;11.576;2023-05-10T02:03:22;1.40;;;1.40;;
26034;SDS011;13809;48.632;11.576;2023-05-10T02:08:27;1.30;;;1.30;;
26034;SDS011;13809;48.632;11.576;2023-05-10T02:13:31;1.40;;;1.30;;
26034;SDS011;13809;48.632;11.576;2023-05-10T02:18:39;1.40;;;1.30;;
26034;SDS011;13809;48.632;11.576;2023-05-10T02:23:43;1.30;;;1.30;;
26034;SDS011;13809;48.632;11.576;2023-05-10T02:28:48;1.77;;;1.67;;
26034;SDS011;13809;48.632;11.576;2023-05-10T02:33:54;1.63;;;1.50;;
26034;SDS011;13809;48.632;11.576;2023-05-10T02:38:59;2.60;;;1.40;;
26034;SDS011;13809;48.632;11.576;2023-05-10T02:44:04;1.40;;;1.30;;
26034;SDS011;13809;48.632;11.576;2023-05-10T02:49:11;1.53;;;1.43;;
26034;SDS011;13809;48.632;11.576;2023-05-10T02:54:15;1.60;;;1.50;;
26034;SDS011;13809;48.632;11.576;2023-05-10T02:59:22;1.53;;;1.30;;
26034;SDS011;13809;48.632;11.576;2023-05-10T03:04:27;1.13;;;1.13;;
26034;SDS011;13809;48.632;11.576;2023-05-10T03:09:30;1.37;;;1.23;;
26034;SDS011;13809;48.632;11.576;2023-05-10T03:14:41;1.10;;;1.10;;
26034;SDS011;13809;48.632;11.576;2023-05-10T03:19:55;0.90;;;0.90;;
26034;SDS011;13809;48.632;11.576;2023-05-10T03:25:00;0.80;;;0.80;;
26034;SDS011;13809;48.632;11.576;2023-05-10T03:30:08;0.70;;;0.70;;
26034;SDS011;13809;48.632;11.576;2023-05-10T03:35:15;0.80;;;0.80;;
26034;SDS011;13809;48.632;11.576;2023-05-10T03:40:18;0.90;;;0.90;;
26034;SDS011;13809;48.632;11.576;2023-05-10T03:45:22;1.00;;;0.80;;
26034;SDS011;13809;48.632;11.576;2023-05-10T03:50:26;0.80;;;0.80;;
26034;SDS011;13809;48.632;11.576;2023-05-10T03:55:30;2.03;;;1.10;;
26034;SDS011;13809;48.632;11.576;2023-05-10T04:00:35;1.20;;;1.10;;
26034;SDS011;13809;48.632;11.576;2023-05-10T04:05:40;1.00;;;1.00;;
26034;SDS011;13809;48.632;11.576;2023-05-10T04:10:43;0.80;;;0.80;;
26034;SDS011;13809;48.632;11.576;2023-05-10T04:15:46;1.00;;;1.00;;
26034;SDS011;13809;48.632;11.576;2023-05-10T04:20:51;1.23;;;1.10;;
26034;SDS011;13809;48.632;11.576;2023-05-10T04:25:58;0.90;;;0.83;;
26034;SDS011;13809;48.632;11.576;2023-05-10T04:31:03;0.80;;;0.80;;
26034;SDS011;13809;48.632;11.576;2023-05-10T04:36:08;2.20;;;0.80;;
26034;SDS011;13809;48.632;11.576;2023-05-10T04:41:12;0.70;;;0.60;;
26034;SDS011;13809;48.632;11.576;2023-05-10T04:46:15;0.80;;;0.80;;
26034;SDS011;13809;48.632;11.576;2023-05-10T04:51:19;0.70;;;0.70;;
26034;SDS011;13809;48.632;11.576;2023-05-10T04:56:22;1.33;;;0.70;;
26034;SDS011;13809;48.632;11.576;2023-05-10T05:01:25;0.80;;;0.80;;
26034;SDS011;13809;48.632;11.576;2023-05-10T05:06:30;1.03;;;0.60;;
26034;SDS011;13809;48.632;11.576;2023-05-10T05:11:33;0.70;;;0.70;;
26034;SDS011;13809;48.632;11.576;2023-05-10T05:16:37;0.60;;;0.60;;
26034;SDS011;13809;48.632;11.576;2023-05-10T05:21:41;0.87;;;0.60;;
26034;SDS011;13809;48.632;11.576;2023-05-10T05:26:44;0.50;;;0.50;;
26034;SDS011;13809;48.632;11.576;2023-05-10T05:31:47;0.70;;;0.70;;
26034;SDS011;13809;48.632;11.576;2023-05-10T05:36:52;0.50;;;0.50;;
26034;SDS011;13809;48.632;11.576;2023-05-10T05:41:56;0.60;;;0.50;;
26034;SDS011;13809;48.632;11.576;2023-05-10T05:46:59;0.60;;;0.60;;
26034;SDS011;13809;48.632;11.576;2023-05-10T05:52:04;0.50;;;0.50;;
26034;SDS011;13809;48.632;11.576;2023-05-10T05:57:07;0.53;;;0.50;;
26034;SDS011;13809;48.632;11.576;2023-05-10T06:02:10;0.50;;;0.50;;
26034;SDS011;13809;48.632;11.576;2023-05-10T06:07:15;0.57;;;0.57;;
26034;SDS011;13809;48.632;11.576;2023-05-10T06:12:18;0.70;;;0.70;;
26034;SDS011;13809;48.632;11.576;2023-05-10T06:17:21;0.70;;;0.70;;
26034;SDS011;13809;48.632;11.576;2023-05-10T06:22:26;2.00;;;0.53;;
26034;SDS011;13809;48.632;11.576;2023-05-10T06:27:29;0.70;;;0.70;;
26034;SDS011;13809;48.632;11.576;2023-05-10T06:32:33;0.80;;;0.80;;
26034;SDS011;13809;48.632;11.576;2023-05-10T06:37:37;0.73;;;0.73;;
26034;SDS011;13809;48.632;11.576;2023-05-10T06:42:41;0.70;;;0.70;;
26034;SDS011;13809;48.632;11.576;2023-05-10T06:47:46;0.53;;;0.53;;
26034;SDS011;13809;48.632;11.576;2023-05-10T06:52:50;0.90;;;0.90;;
26034;SDS011;13809;48.632;11.576;2023-05-10T06:57:54;0.70;;;0.70;;
26034;SDS011;13809;48.632;11.576;2023-05-10T07:02:57;0.70;;;0.70;;
26034;SDS011;13809;48.632;11.576;2023-05-10T07:08:01;0.80;;;0.80;;
26034;SDS011;13809;48.632;11.576;2023-05-10T07:13:05;0.90;;;0.90;;
26034;SDS011;13809;48.632;11.576;2023-05-10T07:18:08;1.30;;;0.80;;
26034;SDS011;13809;48.632;11.576;2023-05-10T07:23:13;0.73;;;0.73;;
26034;SDS011;13809;48.632;11.576;2023-05-10T07:28:16;0.83;;;0.83;;
26034;SDS011;13809;48.632;11.576;2023-05-10T07:33:19;0.90;;;0.90;;
26034;SDS011;13809;48.632;11.576;2023-05-10T07:38:24;1.13;;;1.00;;
26034;SDS011;13809;48.632;11.576;2023-05-10T07:43:27;1.10;;;1.10;;
26034;SDS011;13809;48.632;11.576;2023-05-10T07:48:30;1.23;;;1.13;;
26034;SDS011;13809;48.632;11.576;2023-05-10T07:53:35;1.00;;;1.00;;
26034;SDS011;13809;48.632;11.576;2023-05-10T07:58:38;1.13;;;1.13;;
26034;SDS011;13809;48.632;11.576;2023-05-10T08:04:40;1.10;;;1.10;;
26034;SDS011;13809;48.632;11.576;2023-05-10T08:09:44;1.20;;;1.20;;
26034;SDS011;13809;48.632;11.576;2023-05-10T08:14:47;1.20;;;1.20;;
26034;SDS011;13809;48.632;11.576;2023-05-10T08:19:51;1.10;;;1.00;;
26034;SDS011;13809;48.632;11.576;2023-05-10T08:24:55;1.67;;;1.03;;
26034;SDS011;13809;48.632;11.576;2023-05-10T08:29:58;1.20;;;1.10;;
26034;SDS011;13809;48.632;11.576;2023-05-10T08:35:03;1.10;;;1.00;;
26034;SDS011;13809;48.632;11.576;2023-05-10T08:40:07;1.20;;;1.20;;
26034;SDS011;13809;48.632;11.576;2023-05-10T08:45:13;1.13;;;1.03;;
26034;SDS011;13809;48.632;11.576;2023-05-10T08:50:21;1.50;;;1.17;;
26034;SDS011;13809;48.632;11.576;2023-05-10T08:55:25;2.13;;;1.10;;
26034;SDS011;13809;48.632;11.576;2023-05-10T09:00:28;1.27;;;1.03;;
26034;SDS011;13809;48.632;11.576;2023-05-10T09:05:33;1.10;;;1.00;;
26034;SDS011;13809;48.632;11.576;2023-05-10T09:10:38;1.30;;;1.20;;
26034;SDS011;13809;48.632;11.576;2023-05-10T09:15:43;1.00;;;1.00;;
26034;SDS011;13809;48.632;11.576;2023-05-10T09:20:48;1.40;;;1.27;;
26034;SDS011;13809;48.632;11.576;2023-05-10T09:26:01;1.27;;;1.17;;
26034;SDS011;13809;48.632;11.576;2023-05-10T09:31:05;1.10;;;1.10;;
26034;SDS011;13809;48.632;11.576;2023-05-10T09:36:11;1.27;;;1.17;;
26034;SDS011;13809;48.632;11.576;2023-05-10T09:41:17;0.97;;;0.97;;
26034;SDS011;13809;48.632;11.576;2023-05-10T09:46:22;2.10;;;1.37;;
26034;SDS011;13809;48.632;11.576;2023-05-10T09:51:27;1.33;;;1.27;;
26034;SDS011;13809;48.632;11.576;2023-05-10T09:56:33;1.10;;;1.10;;
26034;SDS011;13809;48.632;11.576;2023-05-10T10:01:37;1.20;;;1.10;;
26034;SDS011;13809;48.632;11.576;2023-05-10T10:06:43;1.20;;;1.10;;
26034;SDS011;13809;48.632;11.576;2023-05-10T10:11:46;1.10;;;1.10;;
26034;SDS011;13809;48.632;11.576;2023-05-10T10:16:49;1.10;;;1.10;;
26034;SDS011;13809;48.632;11.576;2023-05-10T10:22:08;1.00;;;1.00;;
26034;SDS011;13809;48.632;11.576;2023-05-10T10:27:15;1.30;;;1.20;;
26034;SDS011;13809;48.632;11.576;2023-05-10T10:32:25;1.27;;;1.17;;
26034;SDS011;13809;48.632;11.576;2023-05-10T10:37:47;1.10;;;1.00;;
26034;SDS011;13809;48.632;11.576;2023-05-10T10:42:53;2.00;;;1.13;;
26034;SDS011;13809;48.632;11.576;2023-05-10T10:53:27;2.27;;;1.30;;
26034;SDS011;13809;48.632;11.576;2023-05-10T10:58:30;2.57;;;1.00;;
26034;SDS011;13809;48.632;11.576;2023-05-10T11:03:34;1.10;;;1.10;;
26034;SDS011;13809;48.632;11.576;2023-05-10T11:08:42;1.77;;;1.30;;
26034;SDS011;13809;48.632;11.576;2023-05-10T11:13:46;1.20;;;1.20;;
26034;SDS011;13809;48.632;11.576;2023-05-10T11:18:52;2.20;;;1.17;;
26034;SDS011;13809;48.632;11.576;2023-05-10T11:24:09;1.80;;;0.90;;
26034;SDS011;13809;48.632;11.576;2023-05-10T11:29:16;1.53;;;0.90;;
26034;SDS011;13809;48.632;11.576;2023-05-10T11:34:23;0.87;;;0.87;;
26034;SDS011;13809;48.632;11.576;2023-05-10T11:39:28;1.00;;;0.90;;
26034;SDS011;13809;48.632;11.576;2023-05-10T11:44:33;0.97;;;0.97;;
26034;SDS011;13809;48.632;11.576;2023-05-10T11:49:36;1.03;;;1.03;;
26034;SDS011;13809;48.632;11.576;2023-05-10T11:54:46;2.10;;;1.27;;
26034;SDS011;13809;48.632;11.576;2023-05-10T11:59:53;2.20;;;0.80;;
26034;SDS011;13809;48.632;11.576;2023-05-10T12:04:58;2.90;;;0.83;;
26034;SDS011;13809;48.632;11.576;2023-05-10T12:10:04;0.70;;;0.70;;
26034;SDS011;13809;48.632;11.576;2023-05-10T12:15:12;1.20;;;1.03;;
26034;SDS011;13809;48.632;11.576;2023-05-10T12:20:19;1.53;;;1.10;;
26034;SDS011;13809;48.632;11.576;2023-05-10T12:25:29;1.23;;;1.13;;
26034;SDS011;13809;48.632;11.576;2023-05-10T12:30:34;1.10;;;0.90;;
26034;SDS011;13809;48.632;11.576;2023-05-10T12:35:47;1.10;;;1.00;;
26034;SDS011;13809;48.632;11.576;2023-05-10T12:40:53;0.90;;;0.90;;
26034;SDS011;13809;48.632;11.576;2023-05-10T12:45:57;0.80;;;0.80;;
26034;SDS011;13809;48.632;11.576;2023-05-10T12:51:00;1.07;;;0.80;;
26034;SDS011;13809;48.632;11.576;2023-05-10T12:56:05;0.87;;;0.87;;
26034;SDS011;13809;48.632;11.576;2023-05-10T13:01:09;1.27;;;0.97;;
26034;SDS011;13809;48.632;11.576;2023-05-10T13:06:13;0.97;;;0.80;;
26034;SDS011;13809;48.632;11.576;2023-05-10T13:11:18;1.00;;;1.00;;
26034;SDS011;13809;48.632;11.576;2023-05-10T13:16:22;1.07;;;1.00;;
26034;SDS011;13809;48.632;11.576;2023-05-10T13:21:26;1.00;;;1.00;;
26034;SDS011;13809;48.632;11.576;2023-05-10T13:26:30;0.90;;;0.90;;
26034;SDS011;13809;48.632;11.576;2023-05-10T13:31:33;1.10;;;1.00;;
26034;SDS011;13809;48.632;11.576;2023-05-10T13:36:37;1.43;;;1.20;;
26034;SDS011;13809;48.632;11.576;2023-05-10T13:41:42;0.77;;;0.77;;
26034;SDS011;13809;48.632;11.576;2023-05-10T13:46:45;0.80;;;0.80;;
26034;SDS011;13809;48.632;11.576;2023-05-10T13:51:48;0.70;;;0.70;;
26034;SDS011;13809;48.632;11.576;2023-05-10T13:56:53;0.93;;;0.93;;
26034;SDS011;13809;48.632;11.576;2023-05-10T14:01:57;1.40;;;1.10;;
26034;SDS011;13809;48.632;11.576;2023-05-10T14:07:00;2.37;;;1.33;;
26034;SDS011;13809;48.632;11.576;2023-05-10T14:12:04;2.77;;;1.97;;
26034;SDS011;13809;48.632;11.576;2023-05-10T14:17:08;1.60;;;1.00;;
26034;SDS011;13809;48.632;11.576;2023-05-10T14:22:12;1.70;;;1.00;;
26034;SDS011;13809;48.632;11.576;2023-05-10T14:27:17;1.00;;;0.90;;
26034;SDS011;13809;48.632;11.576;2023-05-10T14:32:20;0.87;;;0.87;;
26034;SDS011;13809;48.632;11.576;2023-05-10T14:37:24;1.83;;;0.93;;
26034;SDS011;13809;48.632;11.576;2023-05-10T14:42:28;0.80;;;0.80;;
26034;SDS011;13809;48.632;11.576;2023-05-10T14:47:32;1.43;;;1.30;;
26034;SDS011;13809;48.632;11.576;2023-05-10T14:52:35;1.37;;;0.90;;
26034;SDS011;13809;48.632;11.576;2023-05-10T14:57:40;0.70;;;0.70;;
26034;SDS011;13809;48.632;11.576;2023-05-10T15:02:43;1.40;;;1.30;;
26034;SDS011;13809;48.632;11.576;2023-05-10T15:07:47;0.90;;;0.90;;
26034;SDS011;13809;48.632;11.576;2023-05-10T15:12:51;2.00;;;1.37;;
26034;SDS011;13809;48.632;11.576;2023-05-10T15:17:55;0.90;;;0.90;;
26034;SDS011;13809;48.632;11.576;2023-05-10T15:22:58;1.10;;;1.00;;
26034;SDS011;13809;48.632;11.576;2023-05-10T15:28:03;1.40;;;1.07;;
26034;SDS011;13809;48.632;11.576;2023-05-10T15:33:06;0.90;;;0.90;;
26034;SDS011;13809;48.632;11.576;2023-05-10T15:38:10;3.23;;;1.00;;
26034;SDS011;13809;48.632;11.576;2023-05-10T15:43:14;1.00;;;1.00;;
26034;SDS011;13809;48.632;11.576;2023-05-10T15:48:18;0.77;;;0.77;;
26034;SDS011;13809;48.632;11.576;2023-05-10T15:53:21;2.83;;;1.07;;
26034;SDS011;13809;48.632;11.576;2023-05-10T15:58:26;4.90;;;1.20;;
26034;SDS011;13809;48.632;11.576;2023-05-10T16:03:29;1.13;;;1.10;;
26034;SDS011;13809;48.632;11.576;2023-05-10T16:08:32;1.83;;;1.10;;
26034;SDS011;13809;48.632;11.576;2023-05-10T16:13:37;1.30;;;1.00;;
26034;SDS011;13809;48.632;11.576;2023-05-10T16:18:40;1.20;;;1.10;;
26034;SDS011;13809;48.632;11.576;2023-05-10T16:23:43;1.00;;;1.00;;
26034;SDS011;13809;48.632;11.576;2023-05-10T16:28:48;2.73;;;1.20;;
26034;SDS011;13809;48.632;11.576;2023-05-10T16:33:52;1.70;;;1.20;;
26034;SDS011;13809;48.632;11.576;2023-05-10T16:38:55;1.60;;;1.40;;
26034;SDS011;13809;48.632;11.576;2023-05-10T16:44:00;1.77;;;1.23;;
26034;SDS011;13809;48.632;11.576;2023-05-10T16:49:05;2.83;;;1.40;;
26034;SDS011;13809;48.632;11.576;2023-05-10T16:54:09;2.17;;;1.20;;
26034;SDS011;13809;48.632;11.576;2023-05-10T16:59:14;2.47;;;1.30;;
26034;SDS011;13809;48.632;11.576;2023-05-10T17:04:17;1.30;;;1.20;;
26034;SDS011;13809;48.632;11.576;2023-05-10T17:09:20;1.10;;;1.00;;
26034;SDS011;13809;48.632;11.576;2023-05-10T17:14:25;1.63;;;1.10;;
26034;SDS011;13809;48.632;11.576;2023-05-10T17:19:28;1.17;;;1.10;;
26034;SDS011;13809;48.632;11.576;2023-05-10T17:24:31;0.90;;;0.90;;
26034;SDS011;13809;48.632;11.576;2023-05-10T17:29:36;1.40;;;1.30;;
26034;SDS011;13809;48.632;11.576;2023-05-10T17:34:39;1.50;;;1.40;;
26034;SDS011;13809;48.632;11.576;2023-05-10T17:39:42;1.30;;;1.20;;
26034;SDS011;13809;48.632;11.576;2023-05-10T17:44:47;1.10;;;1.10;;
26034;SDS011;13809;48.632;11.576;2023-05-10T17:49:50;1.10;;;1.10;;
26034;SDS011;13809;48.632;11.576;2023-05-10T17:54:53;1.73;;;1.30;;
26034;SDS011;13809;48.632;11.576;2023-05-10T17:59:58;2.20;;;1.77;;
26034;SDS011;13809;48.632;11.576;2023-05-10T18:05:02;1.33;;;1.03;;
26034;SDS011;13809;48.632;11.576;2023-05-10T18:10:06;1.73;;;1.40;;
26034;SDS011;13809;48.632;11.576;2023-05-10T18:15:11;2.17;;;2.07;;
26034;SDS011;13809;48.632;11.576;2023-05-10T18:20:15;1.20;;;1.13;;
26034;SDS011;13809;48.632;11.576;2023-05-10T18:25:18;1.20;;;1.10;;
26034;SDS011;13809;48.632;11.576;2023-05-10T18:30:23;0.90;;;0.90;;
26034;SDS011;13809;48.632;11.576;2023-05-10T18:35:26;1.20;;;1.10;;
26034;SDS011;13809;48.632;11.576;2023-05-10T18:40:30;1.00;;;1.00;;
26034;SDS011;13809;48.632;11.576;2023-05-10T18:45:35;1.07;;;1.00;;
26034;SDS011;13809;48.632;11.576;2023-05-10T18:50:39;3.33;;;2.97;;
26034;SDS011;13809;48.632;11.576;2023-05-10T18:55:42;4.13;;;3.60;;
26034;SDS011;13809;48.632;11.576;2023-05-10T19:00:48;1.70;;;1.60;;
26034;SDS011;13809;48.632;11.576;2023-05-10T19:05:51;1.20;;;1.10;;
26034;SDS011;13809;48.632;11.576;2023-05-10T19:10:54;1.20;;;1.20;;
26034;SDS011;13809;48.632;11.576;2023-05-10T19:16:03;1.57;;;1.43;;
26034;SDS011;13809;48.632;11.576;2023-05-10T19:21:07;1.30;;;1.10;;
26034;SDS011;13809;48.632;11.576;2023-05-10T19:26:11;1.47;;;1.30;;
26034;SDS011;13809;48.632;11.576;2023-05-10T19:31:15;1.93;;;1.10;;
26034;SDS011;13809;48.632;11.576;2023-05-10T19:36:19;1.40;;;1.30;;
26034;SDS011;13809;48.632;11.576;2023-05-10T19:41:22;1.57;;;1.10;;
26034;SDS011;13809;48.632;11.576;2023-05-10T19:46:27;1.00;;;0.97;;
26034;SDS011;13809;48.632;11.576;2023-05-10T19:51:31;1.70;;;1.43;;
26034;SDS011;13809;48.632;11.576;2023-05-10T19:56:34;1.70;;;1.60;;
26034;SDS011;13809;48.632;11.576;2023-05-10T20:01:39;1.50;;;1.40;;
26034;SDS011;13809;48.632;11.576;2023-05-10T20:06:42;1.30;;;1.20;;
26034;SDS011;13809;48.632;11.576;2023-05-10T20:11:47;1.40;;;1.30;;
26034;SDS011;13809;48.632;11.576;2023-05-10T20:16:52;2.30;;;1.43;;
26034;SDS011;13809;48.632;11.576;2023-05-10T20:21:55;1.13;;;1.13;;
26034;SDS011;13809;48.632;11.576;2023-05-10T20:26:59;2.20;;;1.30;;
26034;SDS011;13809;48.632;11.576;2023-05-10T20:32:04;1.60;;;1.37;;
26034;SDS011;13809;48.632;11.576;2023-05-10T20:37:07;1.43;;;1.33;;
26034;SDS011;13809;48.632;11.576;2023-05-10T20:42:10;1.80;;;1.40;;
26034;SDS011;13809;48.632;11.576;2023-05-10T20:47:15;2.43;;;1.30;;
26034;SDS011;13809;48.632;11.576;2023-05-10T20:52:19;1.63;;;1.30;;
26034;SDS011;13809;48.632;11.576;2023-05-10T20:57:25;2.63;;;1.33;;
26034;SDS011;13809;48.632;11.576;2023-05-10T21:02:30;3.40;;;1.50;;
26034;SDS011;13809;48.632;11.576;2023-05-10T21:07:33;1.93;;;1.43;;
26034;SDS011;13809;48.632;11.576;2023-05-10T21:12:36;2.80;;;1.50;;
26034;SDS011;13809;48.632;11.576;2023-05-10T21:17:41;1.23;;;1.10;;
26034;SDS011;13809;48.632;11.576;2023-05-10T21:22:44;1.43;;;1.30;;
26034;SDS011;13809;48.632;11.576;2023-05-10T21:27:47;1.93;;;1.30;;
26034;SDS011;13809;48.632;11.576;2023-05-10T21:32:52;1.50;;;1.40;;
26034;SDS011;13809;48.632;11.576;2023-05-10T21:38:00;1.30;;;1.20;;
26034;SDS011;13809;48.632;11.576;2023-05-10T21:43:03;1.73;;;1.30;;
26034;SDS011;13809;48.632;11.576;2023-05-10T21:48:07;1.40;;;1.30;;
26034;SDS011;13809;48.632;11.576;2023-05-10T21:53:10;1.50;;;1.40;;
26034;SDS011;13809;48.632;11.576;2023-05-10T21:58:13;1.30;;;1.20;;
26034;SDS011;13809;48.632;11.576;2023-05-10T22:03:18;1.33;;;1.23;;
26034;SDS011;13809;48.632;11.576;2023-05-10T22:08:22;1.77;;;1.37;;
26034;SDS011;13809;48.632;11.576;2023-05-10T22:13:25;1.50;;;1.40;;
26034;SDS011;13809;48.632;11.576;2023-05-10T22:18:29;1.50;;;1.40;;
26034;SDS011;13809;48.632;11.576;2023-05-10T22:23:33;1.63;;;1.53;;
26034;SDS011;13809;48.632;11.576;2023-05-10T22:28:36;2.10;;;1.43;;
26034;SDS011;13809;48.632;11.576;2023-05-10T22:33:41;1.63;;;1.53;;
26034;SDS011;13809;48.632;11.576;2023-05-10T22:38:44;1.50;;;1.40;;
26034;SDS011;13809;48.632;11.576;2023-05-10T22:43:47;1.50;;;1.40;;
26034;SDS011;13809;48.632;11.576;2023-05-10T22:48:52;1.83;;;1.30;;
26034;SDS011;13809;48.632;11.576;2023-05-10T22:53:55;3.70;;;1.73;;
26034;SDS011;13809;48.632;11.576;2023-05-10T22:58:58;2.20;;;1.20;;
26034;SDS011;13809;48.632;11.576;2023-05-10T23:04:03;2.00;;;1.60;;
26034;SDS011;13809;48.632;11.576;2023-05-10T23:09:07;1.70;;;1.40;;
26034;SDS011;13809;48.632;11.576;2023-05-10T23:14:10;1.67;;;1.57;;
26034;SDS011;13809;48.632;11.576;2023-05-10T23:19:14;1.60;;;1.50;;
26034;SDS011;13809;48.632;11.576;2023-05-10T23:24:18;1.63;;;1.53;;
26034;SDS011;13809;48.632;11.576;2023-05-10T23:29:21;2.13;;;1.60;;
26034;SDS011;13809;48.632;11.576;2023-05-10T23:34:27;1.73;;;1.60;;
26034;SDS011;13809;48.632;11.576;2023-05-10T23:39:31;1.73;;;1.63;;
26034;SDS011;13809;48.632;11.576;2023-05-10T23:44:34;1.60;;;1.50;;
26034;SDS011;13809;48.632;11.576;2023-05-10T23:49:38;2.53;;;1.80;;
26034;SDS011;13809;48.632;11.576;2023-05-10T23:54:42;1.60;;;1.33;;
26034;SDS011;13809;48.632;11.576;2023-05-10T23:59:46;2.43;;;1.70;;
